Time;durP1;ratioP1;P1;durP2;ratioP2;P2;SDS_P1;SDS_P2;PMS_P1;PMS_P2;Temp;Humidity;BMP_temperature;BMP_pressure;BME280_temperature;BME280_humidity;BME280_pressure;Samples;Min_cycle;Max_cycle;Signal;HPM_P1;HPM_P2
2022/08/03 00:01:06;;;;;;;3.08;1.80;;;23.30;73.30;;;;;;5114333;28;20453;-86
2022/08/03 00:03:32;;;;;;;2.60;1.85;;;23.30;73.40;;;;;;5095565;28;20024;-85
2022/08/03 00:05:57;;;;;;;2.40;1.60;;;23.30;73.50;;;;;;5096458;28;20441;-85
2022/08/03 00:08:23;;;;;;;2.95;1.42;;;23.30;73.60;;;;;;5096101;28;20114;-85
2022/08/03 00:10:49;;;;;;;5.28;2.05;;;23.30;73.80;;;;;;5096541;28;20043;-85
2022/08/03 00:13:15;;;;;;;1.77;1.67;;;23.30;73.90;;;;;;5095629;28;20027;-84
2022/08/03 00:15:41;;;;;;;3.00;1.80;;;23.20;74.20;;;;;;5096019;28;20023;-83
2022/08/03 00:18:08;;;;;;;2.25;1.77;;;23.10;74.40;;;;;;5113727;28;20518;-87
2022/08/03 00:20:34;;;;;;;2.25;1.90;;;23.20;74.60;;;;;;5114206;28;20472;-86
2022/08/03 00:23:00;;;;;;;2.47;1.58;;;23.10;74.80;;;;;;5113824;28;20072;-85
2022/08/03 00:25:26;;;;;;;3.35;1.73;;;23.10;75.00;;;;;;5095845;28;20385;-85
2022/08/03 00:27:51;;;;;;;3.30;1.83;;;23.10;74.80;;;;;;5114047;28;20030;-85
2022/08/03 00:30:17;;;;;;;2.60;1.70;;;23.10;74.90;;;;;;5113941;28;20024;-85
2022/08/03 00:32:43;;;;;;;2.45;1.60;;;23.10;74.90;;;;;;5098313;28;20070;-85
2022/08/03 00:35:08;;;;;;;4.85;1.73;;;23.10;74.90;;;;;;5099274;28;20020;-83
2022/08/03 00:37:34;;;;;;;2.22;1.60;;;23.00;75.20;;;;;;5118269;28;20024;-82
2022/08/03 00:40:00;;;;;;;2.35;1.73;;;23.00;75.30;;;;;;5100337;28;20036;-82
2022/08/03 00:42:25;;;;;;;4.50;1.50;;;23.00;75.50;;;;;;5092063;28;20028;-82
2022/08/03 00:44:51;;;;;;;1.80;1.52;;;22.90;75.60;;;;;;5079635;28;20028;-84
2022/08/03 00:47:17;;;;;;;2.47;1.58;;;22.90;75.70;;;;;;5083168;28;20030;-85
2022/08/03 00:49:42;;;;;;;2.47;1.85;;;22.90;75.80;;;;;;5099830;28;20062;-84
2022/08/03 00:52:09;;;;;;;1.85;1.65;;;22.90;76.00;;;;;;5118204;28;20024;-86
2022/08/03 00:54:37;;;;;;;3.65;1.70;;;22.80;76.00;;;;;;5100302;28;20044;-83
2022/08/03 00:57:03;;;;;;;3.92;1.83;;;22.90;76.10;;;;;;5100008;28;20112;-84
2022/08/03 00:59:29;;;;;;;3.00;1.60;;;22.90;76.20;;;;;;5099086;28;20379;-82
2022/08/03 01:01:55;;;;;;;1.88;1.63;;;22.90;76.20;;;;;;5117773;28;20103;-83
2022/08/03 01:04:21;;;;;;;4.13;1.85;;;22.80;76.10;;;;;;5098859;28;20089;-83
2022/08/03 01:07:05;;;;;;;3.47;1.70;;;22.80;76.50;;;;;;5117657;28;20028;-84
2022/08/03 01:09:49;;;;;;;2.15;1.60;;;22.80;76.80;;;;;;5098961;28;20034;-84
2022/08/03 01:12:56;;;;;;;3.00;1.70;;;22.70;76.70;;;;;;5099068;28;20522;-84
2022/08/03 01:15:37;;;;;;;3.65;1.90;;;22.70;76.90;;;;;;5034788;28;20035;-84
2022/08/03 01:18:26;;;;;;;;;;;22.70;76.90;;;;;;5098923;28;20040;-84
2022/08/03 01:20:58;;;;;;;2.58;1.80;;;22.60;77.40;;;;;;5099910;28;19915;-83
2022/08/03 01:23:47;;;;;;;2.40;2.20;;;22.50;77.40;;;;;;5116694;28;20081;-84
2022/08/03 01:26:22;;;;;;;4.70;2.53;;;22.50;77.70;;;;;;5099274;28;20027;-82
2022/08/03 01:28:59;;;;;;;4.75;2.88;;;22.50;77.80;;;;;;5099109;28;20073;-82
2022/08/03 01:31:31;;;;;;;3.90;2.75;;;22.50;78.00;;;;;;5117047;28;20028;-82
2022/08/03 01:34:04;;;;;;;3.33;2.50;;;22.40;78.00;;;;;;5117142;28;20026;-83
2022/08/03 01:36:35;;;;;;;4.25;2.45;;;22.40;78.30;;;;;;5116892;28;20024;-82
2022/08/03 01:39:08;;;;;;;4.43;2.20;;;22.40;78.50;;;;;;5099229;28;20024;-83
2022/08/03 01:41:37;;;;;;;7.93;2.90;;;22.40;78.60;;;;;;5098968;28;20044;-83
2022/08/03 01:44:08;;;;;;;5.97;3.35;;;22.40;78.40;;;;;;5116218;28;20034;-84
2022/08/03 01:46:34;;;;;;;6.50;2.42;;;22.40;78.40;;;;;;5099491;28;20054;-83
2022/08/03 01:49:02;;;;;;;4.43;2.40;;;22.40;78.60;;;;;;5098382;28;20034;-83
2022/08/03 01:51:28;;;;;;;3.78;1.88;;;22.30;78.60;;;;;;5098792;28;20815;-83
2022/08/03 01:53:55;;;;;;;2.42;1.58;;;22.40;78.70;;;;;;5098915;28;20066;-83
2022/08/03 01:56:23;;;;;;;2.35;1.75;;;22.40;78.70;;;;;;5097917;28;20024;-84
2022/08/03 01:58:51;;;;;;;2.20;2.00;;;22.30;78.60;;;;;;5098771;28;20028;-85
2022/08/03 02:01:17;;;;;;;4.72;1.95;;;22.30;78.70;;;;;;5098297;28;20058;-85
2022/08/03 02:03:44;;;;;;;4.63;1.75;;;22.30;78.90;;;;;;5098259;28;20028;-85
2022/08/03 02:06:11;;;;;;;5.00;1.90;;;22.30;78.70;;;;;;5098235;28;20024;-85
2022/08/03 02:08:43;;;;;;;3.15;1.70;;;22.30;78.90;;;;;;5098113;28;20031;-84
2022/08/03 02:11:10;;;;;;;2.70;1.67;;;22.20;79.00;;;;;;5098611;28;20027;-85
2022/08/03 02:13:37;;;;;;;3.10;1.50;;;22.20;78.80;;;;;;5098414;28;20023;-84
2022/08/03 02:16:03;;;;;;;2.30;1.88;;;22.20;78.90;;;;;;5116196;28;20044;-84
2022/08/03 02:18:31;;;;;;;1.83;1.73;;;22.20;79.00;;;;;;5115544;28;20024;-84
2022/08/03 02:20:59;;;;;;;2.58;1.80;;;22.10;79.20;;;;;;5116619;28;20036;-83
2022/08/03 02:23:25;;;;;;;4.15;2.00;;;22.10;79.20;;;;;;5097616;28;20087;-84
2022/08/03 02:25:56;;;;;;;5.68;1.80;;;22.10;79.40;;;;;;5116556;28;20102;-84
2022/08/03 02:28:33;;;;;;;2.85;1.75;;;22.10;79.60;;;;;;5115885;28;20023;-85
2022/08/03 02:31:01;;;;;;;2.65;1.70;;;22.00;80.00;;;;;;5116341;28;20035;-84
2022/08/03 02:33:36;;;;;;;2.05;1.70;;;22.00;80.00;;;;;;5097414;28;20024;-84
2022/08/03 02:36:04;;;;;;;2.00;1.60;;;22.00;80.10;;;;;;5098189;28;20031;-84
2022/08/03 02:38:40;;;;;;;2.47;1.70;;;22.00;80.20;;;;;;5097370;28;20114;-85
2022/08/03 02:41:15;;;;;;;2.45;1.67;;;21.90;80.40;;;;;;5098233;28;20039;-84
2022/08/03 02:43:44;;;;;;;1.90;1.70;;;21.80;80.90;;;;;;5097697;28;20062;-83
2022/08/03 02:46:12;;;;;;;3.13;1.98;;;21.80;80.90;;;;;;5097512;28;20080;-85
2022/08/03 02:48:40;;;;;;;2.35;1.65;;;21.70;81.20;;;;;;5097227;28;20020;-84
2022/08/03 02:51:06;;;;;;;3.22;1.80;;;21.60;81.50;;;;;;5097486;28;20035;-82
2022/08/03 02:53:33;;;;;;;3.75;1.83;;;21.60;81.80;;;;;;5096928;28;20030;-81
2022/08/03 02:56:01;;;;;;;4.32;1.70;;;21.50;82.20;;;;;;5096814;28;20023;-81
2022/08/03 02:58:27;;;;;;;2.13;1.90;;;21.50;82.60;;;;;;5114834;28;20047;-82
2022/08/03 03:00:54;;;;;;;2.72;1.90;;;21.50;82.60;;;;;;5097644;28;20038;-82
2022/08/03 03:03:21;;;;;;;5.07;2.20;;;21.40;82.80;;;;;;5096542;28;20057;-83
2022/08/03 03:05:48;;;;;;;3.08;2.10;;;21.40;83.00;;;;;;5097548;28;20030;-81
2022/08/03 03:08:17;;;;;;;2.75;2.00;;;21.40;83.20;;;;;;5096775;28;20031;-82
2022/08/03 03:10:43;;;;;;;2.80;1.80;;;21.40;83.20;;;;;;5097615;28;20111;-84
2022/08/03 03:13:09;;;;;;;2.25;2.05;;;21.30;83.60;;;;;;5096716;28;20029;-85
2022/08/03 03:15:38;;;;;;;2.78;1.98;;;21.30;84.00;;;;;;5115448;28;20028;-81
2022/08/03 03:18:05;;;;;;;3.40;2.33;;;21.20;84.40;;;;;;5093218;28;20044;-83
2022/08/03 03:20:34;;;;;;;3.67;1.80;;;21.20;84.80;;;;;;5093417;28;20032;-82
2022/08/03 03:23:01;;;;;;;4.55;1.92;;;21.10;84.90;;;;;;5093766;28;20024;-82
2022/08/03 03:25:37;;;;;;;3.85;2.05;;;21.10;85.20;;;;;;5093931;28;20024;-82
2022/08/03 03:28:03;;;;;;;2.83;1.90;;;21.10;85.60;;;;;;5094807;28;20024;-83
2022/08/03 03:30:29;;;;;;;3.45;1.80;;;21.00;85.70;;;;;;5094413;28;20039;-83
2022/08/03 03:32:56;;;;;;;4.32;1.88;;;21.00;85.90;;;;;;5094601;28;20020;-83
2022/08/03 03:35:21;;;;;;;2.20;2.00;;;21.00;86.30;;;;;;5094056;28;20436;-83
2022/08/03 03:37:47;;;;;;;5.00;2.10;;;21.00;86.50;;;;;;5093115;28;20020;-81
2022/08/03 03:40:13;;;;;;;3.67;1.63;;;21.00;86.40;;;;;;5094088;28;20060;-82
2022/08/03 03:42:40;;;;;;;2.65;2.20;;;21.00;86.40;;;;;;5093318;28;20078;-81
2022/08/03 03:45:06;;;;;;;4.05;2.22;;;21.00;86.50;;;;;;5093164;28;20077;-82
2022/08/03 03:47:34;;;;;;;3.20;2.10;;;21.00;86.60;;;;;;5087990;28;20017;-82
2022/08/03 03:50:04;;;;;;;6.22;2.30;;;21.00;86.90;;;;;;5073032;28;20094;-83
2022/08/03 03:52:31;;;;;;;3.88;2.22;;;20.90;87.60;;;;;;5072721;28;20478;-82
2022/08/03 03:54:57;;;;;;;6.63;2.28;;;20.80;87.90;;;;;;5072876;28;20078;-83
2022/08/03 03:57:22;;;;;;;3.03;2.10;;;20.80;88.40;;;;;;5072103;28;20040;-83
2022/08/03 03:59:48;;;;;;;2.95;2.08;;;20.70;88.90;;;;;;5072744;28;20043;-83
2022/08/03 04:02:14;;;;;;;3.60;2.20;;;20.70;89.10;;;;;;5072519;28;20028;-83
2022/08/03 04:13:06;;;;;;;3.35;2.10;;;20.70;90.00;;;;;;5073725;28;20027;-83
2022/08/03 04:15:33;;;;;;;2.95;1.90;;;20.60;90.00;;;;;;5072233;28;20028;-84
2022/08/03 04:18:00;;;;;;;7.05;2.30;;;20.60;90.00;;;;;;5101875;28;20048;-84
2022/08/03 04:20:31;;;;;;;3.40;2.30;;;20.60;90.10;;;;;;5113813;28;20035;-84
2022/08/03 04:22:59;;;;;;;3.63;1.87;;;20.60;90.30;;;;;;5095883;28;20034;-83
2022/08/03 04:25:28;;;;;;;2.05;1.85;;;20.60;90.40;;;;;;5095170;28;20161;-84
2022/08/03 04:27:58;;;;;;;2.92;2.20;;;20.60;90.60;;;;;;5096085;28;20031;-84
2022/08/03 04:30:26;;;;;;;5.13;2.00;;;20.60;90.50;;;;;;5113717;28;20027;-84
2022/08/03 04:32:54;;;;;;;3.65;2.40;;;20.60;90.70;;;;;;5096029;28;20023;-83
2022/08/03 04:35:20;;;;;;;3.63;1.92;;;20.50;90.80;;;;;;5089434;28;20024;-83
2022/08/03 04:37:50;;;;;;;3.60;2.22;;;20.50;90.80;;;;;;5093591;28;20035;-83
2022/08/03 04:40:24;;;;;;;5.35;1.92;;;20.50;91.00;;;;;;5075759;28;20064;-83
2022/08/03 04:42:52;;;;;;;3.75;1.98;;;20.50;91.00;;;;;;5086665;28;20521;-83
2022/08/03 04:45:19;;;;;;;3.60;2.03;;;20.60;90.90;;;;;;5113345;28;20093;-82
2022/08/03 04:47:45;;;;;;;3.67;2.10;;;20.60;90.90;;;;;;5095757;28;20023;-81
2022/08/03 04:50:12;;;;;;;3.72;2.30;;;20.70;90.80;;;;;;5095550;28;20031;-82
2022/08/03 04:52:38;;;;;;;2.55;2.03;;;20.70;90.80;;;;;;5095869;28;20020;-81
2022/08/03 04:55:04;;;;;;;4.40;2.08;;;20.80;90.80;;;;;;5114044;28;20028;-81
2022/08/03 04:57:29;;;;;;;2.92;2.08;;;20.80;90.70;;;;;;5095132;28;20023;-81
2022/08/03 04:59:55;;;;;;;3.17;2.38;;;20.80;90.70;;;;;;5113779;28;20046;-83
2022/08/03 05:02:21;;;;;;;3.22;1.85;;;20.90;90.60;;;;;;5095695;28;20130;-84
2022/08/03 05:04:47;;;;;;;6.68;1.92;;;20.80;90.50;;;;;;5095641;28;20080;-84
2022/08/03 05:07:13;;;;;;;3.45;2.28;;;20.80;90.60;;;;;;5095290;28;20031;-84
2022/08/03 05:09:39;;;;;;;3.60;2.20;;;20.90;90.50;;;;;;5113651;28;20031;-84
2022/08/03 05:12:06;;;;;;;4.28;2.10;;;20.90;90.40;;;;;;5096453;28;20024;-83
2022/08/03 05:14:38;;;;;;;10.15;2.13;;;21.00;90.40;;;;;;5113398;28;20380;-84
2022/08/03 05:17:04;;;;;;;3.55;2.00;;;21.00;90.30;;;;;;5091781;28;20052;-84
2022/08/03 05:19:30;;;;;;;3.42;2.33;;;21.00;90.20;;;;;;5095941;28;20024;-83
2022/08/03 05:21:56;;;;;;;7.43;2.63;;;21.10;90.10;;;;;;5096215;28;20075;-82
2022/08/03 05:24:22;;;;;;;4.68;2.13;;;21.10;90.10;;;;;;5095692;28;20053;-83
2022/08/03 05:26:47;;;;;;;5.45;2.00;;;21.20;90.10;;;;;;5096930;28;20032;-84
2022/08/03 05:29:13;;;;;;;3.20;1.90;;;21.20;90.00;;;;;;5095568;28;20496;-85
2022/08/03 05:31:39;;;;;;;4.97;1.90;;;21.20;89.90;;;;;;5096947;28;20063;-84
2022/08/03 05:34:05;;;;;;;8.25;2.28;;;21.20;89.60;;;;;;5096713;28;20464;-83
2022/08/03 05:36:30;;;;;;;5.55;2.60;;;21.30;89.50;;;;;;5096485;28;20020;-84
2022/08/03 05:38:56;;;;;;;6.22;2.00;;;21.40;89.20;;;;;;5095271;28;20047;-83
2022/08/03 05:41:22;;;;;;;4.50;2.00;;;21.40;89.30;;;;;;5096059;28;20518;-84
2022/08/03 05:43:48;;;;;;;5.22;2.03;;;21.40;89.10;;;;;;5095208;28;20024;-84
2022/08/03 05:46:14;;;;;;;3.40;2.10;;;21.50;88.90;;;;;;5095595;28;20066;-82
2022/08/03 05:48:41;;;;;;;12.38;3.08;;;21.50;88.60;;;;;;5095035;28;20024;-81
2022/08/03 05:51:09;;;;;;;2.92;1.83;;;21.60;88.40;;;;;;5094815;28;20115;-81
2022/08/03 05:53:36;;;;;;;10.82;2.42;;;21.60;88.10;;;;;;5096055;28;20112;-81
2022/08/03 05:56:02;;;;;;;7.38;2.13;;;21.70;88.10;;;;;;5094833;28;20024;-82
2022/08/03 05:58:28;;;;;;;4.25;1.88;;;21.70;87.50;;;;;;5095403;28;20028;-82
2022/08/03 06:00:54;;;;;;;5.63;2.85;;;21.80;87.10;;;;;;5095700;28;20036;-82
2022/08/03 06:03:19;;;;;;;4.68;1.92;;;21.80;86.90;;;;;;5094416;28;20031;-82
2022/08/03 06:05:46;;;;;;;3.85;1.70;;;21.90;86.60;;;;;;5095444;28;20032;-82
2022/08/03 06:08:12;;;;;;;3.50;1.80;;;22.00;86.20;;;;;;5094514;28;20051;-82
2022/08/03 06:10:37;;;;;;;4.13;1.80;;;22.00;86.10;;;;;;5094729;28;20478;-82
2022/08/03 06:13:03;;;;;;;4.38;2.00;;;22.00;85.70;;;;;;5094573;28;20038;-82
2022/08/03 06:15:32;;;;;;;2.03;1.65;;;22.00;85.60;;;;;;5093951;28;20081;-81
2022/08/03 06:17:58;;;;;;;3.97;2.38;;;22.10;85.30;;;;;;5093568;28;20396;-82
2022/08/03 06:20:23;;;;;;;3.63;1.98;;;22.20;85.30;;;;;;5094620;28;20048;-82
2022/08/03 06:22:49;;;;;;;4.30;1.55;;;22.20;85.00;;;;;;5095706;28;20052;-83
2022/08/03 06:25:18;;;;;;;4.72;1.88;;;22.20;84.90;;;;;;5093711;28;20032;-84
2022/08/03 06:27:44;;;;;;;4.03;1.90;;;22.30;84.70;;;;;;5095452;28;20031;-80
2022/08/03 06:30:10;;;;;;;2.90;1.70;;;22.40;84.50;;;;;;5093630;28;20115;-83
2022/08/03 06:32:37;;;;;;;4.03;1.60;;;22.40;84.30;;;;;;5094619;28;20027;-81
2022/08/03 06:35:07;;;;;;;1.85;1.50;;;22.50;84.30;;;;;;5094937;28;20032;-81
2022/08/03 06:37:44;;;;;;;4.03;1.70;;;22.60;83.70;;;;;;5094963;28;20103;-82
2022/08/03 06:40:11;;;;;;;3.63;1.80;;;22.60;83.20;;;;;;5094656;28;20028;-83
2022/08/03 06:42:37;;;;;;;2.55;1.50;;;22.60;83.00;;;;;;5095438;28;20031;-81
2022/08/03 06:45:05;;;;;;;3.58;2.20;;;22.70;82.90;;;;;;5094827;28;20028;-82
2022/08/03 06:47:30;;;;;;;4.35;1.77;;;22.70;82.50;;;;;;5091851;28;20499;-82
2022/08/03 06:49:56;;;;;;;1.70;1.60;;;22.70;82.20;;;;;;5074122;28;20111;-82
2022/08/03 06:52:21;;;;;;;2.53;1.70;;;22.80;82.10;;;;;;5073331;28;20498;-82
2022/08/03 06:54:47;;;;;;;4.55;1.80;;;22.90;81.80;;;;;;5074543;28;20032;-82
2022/08/03 06:57:13;;;;;;;6.43;2.80;;;23.00;81.50;;;;;;5074142;28;20071;-83
2022/08/03 06:59:38;;;;;;;4.28;2.10;;;23.00;81.10;;;;;;5073498;28;20021;-84
2022/08/03 07:02:04;;;;;;;2.17;1.83;;;23.00;80.90;;;;;;5073646;28;20130;-84
2022/08/03 07:04:29;;;;;;;3.45;2.40;;;23.10;80.90;;;;;;5073133;28;20461;-84
2022/08/03 07:06:55;;;;;;;2.70;1.63;;;23.10;80.80;;;;;;5074296;28;20028;-84
2022/08/03 07:09:21;;;;;;;4.55;1.58;;;23.10;80.30;;;;;;5073191;28;20021;-84
2022/08/03 07:11:47;;;;;;;1.67;1.58;;;23.20;79.90;;;;;;5073427;28;20055;-85
2022/08/03 07:14:13;;;;;;;3.50;1.70;;;23.20;79.60;;;;;;5073311;28;20101;-85
2022/08/03 07:16:38;;;;;;;3.45;1.60;;;23.30;79.40;;;;;;5082256;28;20050;-83
2022/08/03 07:19:04;;;;;;;2.42;1.60;;;23.40;79.50;;;;;;5095270;28;20032;-84
2022/08/03 07:21:29;;;;;;;3.10;1.80;;;23.40;79.30;;;;;;5114553;28;20049;-84
2022/08/03 07:23:55;;;;;;;2.15;1.60;;;23.40;79.20;;;;;;5115190;28;20019;-83
2022/08/03 07:26:20;;;;;;;2.47;1.42;;;23.50;78.70;;;;;;5114573;28;20320;-83
2022/08/03 07:28:46;;;;;;;4.82;1.70;;;23.50;78.80;;;;;;5096912;28;20489;-83
2022/08/03 07:31:12;;;;;;;2.05;1.60;;;23.60;78.70;;;;;;5095997;28;20071;-83
2022/08/03 07:33:37;;;;;;;2.85;1.52;;;23.60;78.30;;;;;;5097123;28;20084;-82
2022/08/03 07:36:03;;;;;;;4.75;1.98;;;23.70;78.00;;;;;;5096785;28;20113;-82
2022/08/03 07:38:29;;;;;;;3.72;1.58;;;23.70;77.80;;;;;;5096142;28;20258;-82
2022/08/03 07:40:54;;;;;;;2.33;1.63;;;23.70;77.70;;;;;;5114274;28;20085;-82
2022/08/03 07:43:20;;;;;;;3.45;1.73;;;23.70;77.60;;;;;;5096069;28;20105;-83
2022/08/03 07:45:46;;;;;;;2.83;1.67;;;23.70;77.70;;;;;;5114561;28;20047;-83
2022/08/03 07:48:11;;;;;;;4.47;1.75;;;23.80;77.60;;;;;;5113882;28;20042;-81
2022/08/03 07:50:37;;;;;;;4.13;1.67;;;23.80;77.50;;;;;;5114551;28;20057;-84
2022/08/03 07:53:02;;;;;;;2.90;1.65;;;23.80;77.40;;;;;;5096572;28;20023;-83
2022/08/03 07:55:29;;;;;;;4.00;1.70;;;23.90;77.20;;;;;;5114104;28;20290;-83
2022/08/03 07:58:08;;;;;;;3.78;1.80;;;23.90;77.10;;;;;;5114161;28;20024;-83
2022/08/03 08:00:34;;;;;;;4.45;1.65;;;24.00;76.80;;;;;;5114059;28;20059;-83
2022/08/03 08:03:00;;;;;;;3.58;1.65;;;24.10;77.10;;;;;;5096600;28;20084;-84
2022/08/03 08:05:26;;;;;;;4.25;1.70;;;24.20;76.80;;;;;;5095942;28;20073;-84
2022/08/03 08:07:53;;;;;;;3.60;1.90;;;24.10;76.60;;;;;;5096638;28;20020;-83
2022/08/03 08:10:19;;;;;;;4.28;1.75;;;24.20;76.90;;;;;;5096248;28;20027;-84
2022/08/03 08:12:44;;;;;;;3.78;2.05;;;24.40;77.40;;;;;;5114301;28;20024;-83
2022/08/03 08:15:10;;;;;;;5.00;1.80;;;24.40;77.10;;;;;;5095961;28;20033;-85
2022/08/03 08:17:42;;;;;;;1.58;1.48;;;24.50;76.50;;;;;;5092321;28;20051;-85
2022/08/03 08:20:09;;;;;;;3.22;1.45;;;24.60;76.00;;;;;;5093812;28;20051;-83
2022/08/03 08:22:34;;;;;;;1.95;1.42;;;24.60;75.90;;;;;;5092543;28;20034;-82
2022/08/03 08:25:00;;;;;;;1.40;1.30;;;24.60;75.90;;;;;;5092813;28;20028;-88
2022/08/03 08:27:25;;;;;;;6.05;1.60;;;24.60;76.10;;;;;;5092059;28;20024;-84
2022/08/03 08:29:51;;;;;;;1.77;1.63;;;24.70;76.50;;;;;;5093049;28;20071;-83
2022/08/03 08:32:17;;;;;;;4.70;1.55;;;24.80;75.90;;;;;;5092911;28;20476;-82
2022/08/03 08:34:42;;;;;;;4.43;1.65;;;24.90;75.80;;;;;;5093125;28;20036;-84
2022/08/03 08:37:08;;;;;;;5.97;2.22;;;25.00;76.20;;;;;;5092417;28;20031;-83
2022/08/03 08:39:33;;;;;;;4.28;1.70;;;25.10;75.50;;;;;;5093070;28;20062;-83
2022/08/03 08:41:59;;;;;;;3.97;1.67;;;25.10;76.30;;;;;;5093566;28;20116;-84
2022/08/03 08:44:25;;;;;;;6.10;1.65;;;25.30;76.00;;;;;;5092209;28;20073;-84
2022/08/03 08:46:52;;;;;;;1.85;1.50;;;25.30;75.90;;;;;;5091930;28;20028;-85
2022/08/03 08:49:22;;;;;;;2.78;1.38;;;25.40;76.50;;;;;;5072041;28;20469;-82
2022/08/03 08:51:50;;;;;;;2.53;1.70;;;25.40;76.60;;;;;;5073430;28;20040;-81
2022/08/03 08:54:20;;;;;;;3.25;1.65;;;25.50;77.00;;;;;;5075559;28;20063;-81
2022/08/03 08:56:51;;;;;;;3.97;1.42;;;25.60;77.00;;;;;;5076144;28;20021;-82
2022/08/03 08:59:17;;;;;;;2.70;2.05;;;25.60;76.30;;;;;;5074647;28;20050;-84
2022/08/03 09:01:43;;;;;;;3.05;1.65;;;25.70;76.50;;;;;;5079092;28;20401;-84
2022/08/03 09:04:10;;;;;;;7.70;1.95;;;25.60;75.80;;;;;;5077836;28;20031;-81
2022/08/03 09:06:35;;;;;;;5.50;1.80;;;25.70;76.60;;;;;;5077030;28;20024;-82
2022/08/03 09:09:01;;;;;;;5.63;1.70;;;25.70;76.70;;;;;;5078852;28;20028;-86
2022/08/03 09:11:26;;;;;;;2.40;1.63;;;25.90;76.30;;;;;;5076332;28;20033;-81
2022/08/03 09:13:52;;;;;;;2.45;1.80;;;26.00;76.70;;;;;;5076597;28;20082;-81
2022/08/03 09:16:21;;;;;;;4.97;1.90;;;26.20;76.00;;;;;;5079489;28;20044;-84
2022/08/03 09:18:52;;;;;;;2.42;1.42;;;26.20;75.40;;;;;;5095287;28;20023;-82
2022/08/03 09:21:22;;;;;;;4.13;1.60;;;26.10;75.60;;;;;;5098701;28;20384;-82
2022/08/03 09:23:50;;;;;;;3.35;1.60;;;26.20;75.50;;;;;;5100138;28;20028;-83
2022/08/03 09:26:24;;;;;;;3.10;1.63;;;26.20;75.40;;;;;;5098757;28;20024;-84
2022/08/03 09:29:02;;;;;;;4.70;1.60;;;26.30;74.20;;;;;;5099448;28;20024;-84
2022/08/03 09:31:47;;;;;;;2.40;1.55;;;26.40;73.70;;;;;;5099208;28;20122;-84
2022/08/03 09:34:14;;;;;;;1.95;1.60;;;26.50;74.30;;;;;;5117506;28;20035;-84
2022/08/03 09:36:39;;;;;;;2.13;1.45;;;26.50;74.30;;;;;;5099461;28;20020;-86
2022/08/03 09:39:11;;;;;;;3.38;1.60;;;26.60;73.50;;;;;;5118198;28;20406;-86
2022/08/03 09:41:45;;;;;;;3.97;1.58;;;26.70;73.40;;;;;;5100840;28;20050;-85
2022/08/03 09:44:11;;;;;;;9.88;4.30;;;26.80;73.30;;;;;;5098960;28;20028;-84
2022/08/03 09:46:53;;;;;;;5.25;2.72;;;26.80;72.60;;;;;;5117579;28;20420;-85
2022/08/03 09:49:19;;;;;;;2.13;1.80;;;27.00;72.70;;;;;;5097132;28;20500;-84
2022/08/03 09:51:45;;;;;;;2.63;1.58;;;27.00;72.00;;;;;;5098629;28;20036;-84
2022/08/03 09:54:10;;;;;;;3.65;1.63;;;27.10;71.90;;;;;;5079528;28;20035;-87
2022/08/03 09:56:44;;;;;;;2.17;1.45;;;27.10;71.80;;;;;;5099675;28;20107;-85
2022/08/03 09:59:11;;;;;;;4.07;1.67;;;27.10;71.80;;;;;;5079067;28;20028;-87
2022/08/03 10:01:41;;;;;;;4.25;1.70;;;27.00;71.90;;;;;;5099445;28;20020;-90
2022/08/03 10:04:15;;;;;;;3.55;1.80;;;27.10;71.80;;;;;;5081377;28;20100;-96
2022/08/03 10:06:44;;;;;;;2.78;1.35;;;27.10;71.60;;;;;;5092615;28;20024;-94
2022/08/03 10:09:12;;;;;;;2.75;1.60;;;27.20;71.10;;;;;;5078010;28;20028;-79
2022/08/03 10:11:39;;;;;;;3.47;1.52;;;27.30;70.70;;;;;;5096386;28;20032;-80
2022/08/03 10:14:07;;;;;;;6.00;1.50;;;27.40;70.30;;;;;;5079546;28;20028;-85
2022/08/03 10:16:35;;;;;;;2.58;1.50;;;27.40;70.90;;;;;;5096964;28;20075;-85
2022/08/03 10:19:03;;;;;;;2.80;1.58;;;27.50;70.60;;;;;;5114655;28;20036;-88
2022/08/03 10:21:33;;;;;;;1.67;1.40;;;27.60;69.90;;;;;;5099980;28;20269;-86
2022/08/03 10:24:04;;;;;;;4.60;1.52;;;27.60;69.40;;;;;;5098947;28;20111;-81
2022/08/03 10:26:38;;;;;;;2.05;1.38;;;27.70;69.50;;;;;;5116021;28;20229;-82
2022/08/03 10:29:07;;;;;;;2.50;1.40;;;27.80;69.40;;;;;;5097700;28;20032;-80
2022/08/03 10:31:42;;;;;;;3.47;1.60;;;27.80;69.20;;;;;;5114902;28;20585;-79
2022/08/03 10:34:16;;;;;;;1.65;1.35;;;27.80;68.50;;;;;;5097575;28;20114;-79
2022/08/03 10:36:43;;;;;;;2.80;1.10;;;27.90;67.80;;;;;;5097362;28;20065;-79
2022/08/03 10:39:10;;;;;;;2.88;1.17;;;27.80;67.50;;;;;;5097166;28;20531;-79
2022/08/03 10:41:40;;;;;;;3.13;1.10;;;27.90;67.30;;;;;;5096820;28;20031;-82
2022/08/03 10:44:15;;;;;;;2.67;1.30;;;27.90;66.40;;;;;;5088460;28;20053;-80
2022/08/03 10:46:42;;;;;;;2.13;0.93;;;27.90;66.60;;;;;;5077163;28;20028;-79
2022/08/03 10:49:10;;;;;;;3.45;1.35;;;28.00;66.50;;;;;;5093054;28;20114;-80
2022/08/03 10:51:37;;;;;;;2.65;1.45;;;28.00;66.60;;;;;;5082964;28;20491;-79
2022/08/03 10:54:03;;;;;;;1.30;1.17;;;27.90;66.90;;;;;;5086511;28;20469;-79
2022/08/03 10:59:39;;;;;;;3.67;1.30;;;28.10;66.80;;;;;;5104603;28;20541;-79
2022/08/03 11:02:08;;;;;;;4.30;1.40;;;28.20;67.10;;;;;;5113682;28;20120;-85
2022/08/03 11:04:34;;;;;;;1.45;1.33;;;28.30;66.80;;;;;;5096438;28;20120;-82
2022/08/03 11:07:16;;;;;;;2.65;1.60;;;28.40;66.30;;;;;;5108192;28;20055;-82
2022/08/03 11:09:47;;;;;;;2.47;1.33;;;28.40;66.10;;;;;;5079420;28;20028;-82
2022/08/03 11:12:30;;;;;;;1.77;1.30;;;28.40;67.00;;;;;;5082473;28;20092;-80
2022/08/03 11:14:57;;;;;;;1.63;1.40;;;28.50;66.30;;;;;;5103397;28;20020;-77
2022/08/03 11:17:23;;;;;;;4.00;1.30;;;28.50;66.00;;;;;;5087885;28;20090;-78
2022/08/03 11:19:53;;;;;;;3.03;1.42;;;28.70;65.00;;;;;;5109612;28;20111;-82
2022/08/03 11:22:20;;;;;;;2.70;1.40;;;28.90;64.70;;;;;;5108942;28;20038;-74
2022/08/03 11:24:49;;;;;;;3.70;1.35;;;29.10;64.20;;;;;;5092658;28;20024;-73
2022/08/03 11:27:18;;;;;;;1.83;1.20;;;29.20;64.00;;;;;;5080662;28;20043;-73
2022/08/03 11:30:19;;;;;;;1.92;1.30;;;29.20;64.10;;;;;;5091153;28;20080;-74
2022/08/03 11:32:46;;;;;;;1.85;1.10;;;29.30;63.40;;;;;;4982634;28;20037;-75
2022/08/03 11:35:14;;;;;;;3.15;1.40;;;29.30;63.80;;;;;;5065405;28;20498;-77
2022/08/03 11:38:00;;;;;;;1.88;1.10;;;29.30;63.60;;;;;;5109260;28;20457;-74
2022/08/03 11:40:48;;;;;;;4.47;1.63;;;29.40;63.00;;;;;;5079834;28;20079;-74
2022/08/03 11:43:29;;;;;;;2.40;1.13;;;29.60;62.40;;;;;;5111225;28;20066;-74
2022/08/03 11:46:06;;;;;;;2.90;1.10;;;29.70;62.20;;;;;;5075740;28;20028;-74
2022/08/03 11:48:43;;;;;;;2.40;1.20;;;29.70;62.90;;;;;;5093383;28;20055;-74
2022/08/03 11:51:24;;;;;;;4.28;1.20;;;29.60;62.20;;;;;;5100662;28;20028;-75
2022/08/03 11:53:50;;;;;;;;;;;29.60;62.60;;;;;;5092654;28;20449;-75
2022/08/03 11:56:16;;;;;;;1.75;1.40;;;29.60;62.40;;;;;;5088587;28;19904;-74
2022/08/03 11:58:54;;;;;;;4.28;1.40;;;29.90;62.40;;;;;;5100910;28;20508;-74
2022/08/03 12:01:20;;;;;;;14.60;7.40;;;29.80;62.20;;;;;;5080277;28;20035;-75
2022/08/03 12:03:46;;;;;;;18.00;13.13;;;29.80;62.50;;;;;;5091275;28;20380;-79
2022/08/03 12:06:14;;;;;;;10.00;7.07;;;29.70;63.80;;;;;;5078173;28;20019;-75
2022/08/03 12:08:41;;;;;;;5.72;2.35;;;29.70;62.70;;;;;;5104393;28;20027;-75
2022/08/03 12:11:09;;;;;;;2.30;1.60;;;29.90;62.50;;;;;;5085849;28;20066;-75
2022/08/03 12:13:53;;;;;;;2.28;1.75;;;29.90;62.30;;;;;;5077772;28;20062;-75
2022/08/03 12:16:19;;;;;;;3.30;1.60;;;29.90;62.10;;;;;;5096911;28;20048;-76
2022/08/03 12:18:55;;;;;;;2.75;1.30;;;29.90;62.50;;;;;;5093715;28;20038;-75
2022/08/03 12:21:23;;;;;;;4.30;1.48;;;29.80;62.00;;;;;;5079310;28;20035;-75
2022/08/03 12:23:49;;;;;;;1.50;1.40;;;29.90;61.40;;;;;;5090488;28;20038;-75
2022/08/03 12:26:15;;;;;;;2.08;1.00;;;29.90;61.20;;;;;;5078040;28;20020;-75
2022/08/03 12:28:49;;;;;;;2.53;1.40;;;29.90;60.90;;;;;;5087444;28;20031;-76
2022/08/03 12:31:15;;;;;;;2.70;1.17;;;30.00;60.80;;;;;;5087935;28;20430;-75
2022/08/03 12:33:56;;;;;;;4.63;2.10;;;30.20;60.40;;;;;;5094864;28;20020;-75
2022/08/03 12:36:22;;;;;;;2.95;1.20;;;30.30;60.50;;;;;;5094496;28;20027;-75
2022/08/03 12:38:59;;;;;;;1.80;1.30;;;30.30;59.80;;;;;;5116127;28;20054;-76
2022/08/03 12:41:34;;;;;;;3.03;1.40;;;30.40;59.80;;;;;;5082746;28;20035;-76
2022/08/03 12:44:02;;;;;;;3.30;1.30;;;30.50;60.00;;;;;;5112775;28;20030;-75
2022/08/03 12:46:45;;;;;;;1.77;1.40;;;30.50;59.70;;;;;;5084042;28;20452;-75
2022/08/03 12:49:14;;;;;;;2.75;1.55;;;30.60;60.00;;;;;;5079014;28;20038;-77
2022/08/03 12:51:42;;;;;;;2.40;1.38;;;30.50;60.50;;;;;;5090036;28;20108;-75
2022/08/03 12:54:14;;;;;;;1.77;1.40;;;30.60;60.30;;;;;;5112419;28;20020;-76
2022/08/03 12:56:59;;;;;;;2.83;1.65;;;30.70;60.50;;;;;;5089610;28;20058;-76
2022/08/03 12:59:28;;;;;;;3.00;1.40;;;30.70;60.50;;;;;;5091075;28;20027;-76
2022/08/03 13:01:53;;;;;;;3.55;1.50;;;30.70;60.10;;;;;;5087321;28;20433;-75
2022/08/03 13:04:37;;;;;;;3.30;1.77;;;30.90;59.80;;;;;;5083133;28;20110;-75
2022/08/03 13:07:08;;;;;;;2.05;1.40;;;31.00;58.50;;;;;;5111787;28;20028;-76